KHPT/HPT METAR and TAF weather

Enter ICAO airport designator
Station Type Date Time Source
KHPT METAR 2020/03/31 05:55 UTC NOAA

KHPT 310555Z AUTO 00000KT 10SM CLR 05/01 A3012 RMK AO2


Station Type Date Time Source
KHPT Decoded METAR 2020/03/31 05:55 UTC NOAA

Station name not available
Mar 31, 2020 - 01:55 AM EDT / 2020.03.31 0555 UTC
Wind: Calm:0
Visibility: 10 mile(s):0
Sky conditions: clear
Temperature: 41 F (5 C)
Dew Point: 33 F (1 C)
Relative Humidity: 75%
Pressure (altimeter): 30.12 in. Hg (1019 hPa)
ob: KHPT 310555Z AUTO 00000KT 10SM CLR 05/01 A3012 RMK AO2
cycle: 6

Station Type Date Time Source
KHPT TAF UTC NOAA

Error!

Example: see airport list